Jennifer — WDF6480 — position and weather

sailwx.info

Track history (hours):
 
Tides and Currents Weather Stations Pressure Air Temp Water Temp Dewpoint Dewpoint Depression Visibility Wind Speed Wind Dir Waves Ship Positions

Jennifer

Owner: John W. Stone Oil Distributor, L.L.C., Gretna, LA. More information available from US FCC via Universal Licensing System and Coast Guard Vessel Documentation Center.

Last reported at 2015-Mar-26 17:24 UTC. Time now 2015-Mar-27 02:02 UTC.
Position N 29°56' W 090°04'.

Length 17 m; draft 3 m.

Type: Tug. MMSI: 367474690.

Date/timePositionNaut miles runAvg speedWind from/ knotsBaromVisibWave heightAir tempDewpointWater temp
2015-Mar-26 17:24N 29°56' W 090°04'0 0.0
2015-Mar-26 16:25N 29°56' W 090°04'1 1.2
2015-Mar-26 15:20N 29°57' W 090°03'1 1.6
2015-Mar-26 14:26N 29°55' W 090°04'2 2.1
2015-Mar-26 13:33N 29°57' W 090°04'0 0.0
2015-Mar-26 12:32N 29°57' W 090°04'2 1.8
2015-Mar-26 11:31N 29°55' W 090°04'0 0.0
2015-Mar-26 10:33N 29°55' W 090°04'0 0.0
2015-Mar-26 09:33N 29°55' W 090°04'0 0.0
2015-Mar-26 08:33N 29°55' W 090°04'0 0.0
2015-Mar-26 07:33N 29°55' W 090°04'0 0.2
2015-Mar-26 06:33N 29°55' W 090°04'0 0.0
2015-Mar-26 05:32N 29°55' W 090°04'0 0.0
2015-Mar-26 04:33N 29°55' W 090°04'1 1.4
2015-Mar-26 03:33N 29°57' W 090°03'3 1.5
2015-Mar-26 01:33N 29°56' W 089°60'  
2015-Mar-23 13:24N 29°57' W 090°02'0 0.0
2015-Mar-23 12:18N 29°57' W 090°02'0 0.0
2015-Mar-23 11:18N 29°57' W 090°02'2 2.1
2015-Mar-23 10:27N 29°57' W 090°04'1 1.2
2015-Mar-23 09:16N 29°55' W 090°04'0 0.0
2015-Mar-23 08:30N 29°55' W 090°04'0 0.0
2015-Mar-23 07:25N 29°55' W 090°04'0 0.1
2015-Mar-23 06:21N 29°56' W 090°04'2 2.6
2015-Mar-23 05:33N 29°57' W 090°02'3 3.2
2015-Mar-23 04:33N 29°56' W 089°59'0 0.1
2015-Mar-22 22:12N 29°56' W 089°59'4 2.5
2015-Mar-22 20:27N 29°55' W 090°04'0 0.0
2015-Mar-22 19:25N 29°55' W 090°04'0 0.2
2015-Mar-22 18:29N 29°55' W 090°04'2 1.4
2015-Mar-22 17:24N 29°57' W 090°03'3 2.9
2015-Mar-22 16:27N 29°56' W 090°00'3 0.2
2015-Mar-22 00:33N 29°55' W 089°57'0 0.0
2015-Mar-21 23:33N 29°55' W 089°57'  
2015-Mar-18 16:28N 29°55' W 089°58'5 5.0
2015-Mar-18 15:25N 29°55' W 090°04'0 0.1
2015-Mar-18 14:19N 29°55' W 090°04'0 0.0
2015-Mar-18 13:33N 29°55' W 090°04'0 0.0
2015-Mar-18 12:29N 29°55' W 090°04'0 0.0
2015-Mar-18 11:31N 29°55' W 090°04'2 1.8
2015-Mar-18 10:33N 29°57' W 090°03'  
Track history (hours):
 
Tides and Currents Weather Stations Pressure Air Temp Water Temp Dewpoint Dewpoint Depression Visibility Wind Speed Wind Dir Waves Ship Positions

Jennifer

Owner: John W. Stone Oil Distributor, L.L.C., Gretna, LA. More information available from US FCC via Universal Licensing System and Coast Guard Vessel Documentation Center.

Last reported at 2015-Mar-26 17:24 UTC. Time now 2015-Mar-27 02:02 UTC.
Position N 29°56' W 090°04'.

Length 17 m; draft 3 m.

Type: Tug. MMSI: 367474690.

Date/timePositionNaut miles runAvg speedWind from/ knotsBaromVisibWave heightAir tempDewpointWater temp
2015-Mar-26 17:24N 29°56' W 090°04'0 0.0
2015-Mar-26 16:25N 29°56' W 090°04'1 1.2
2015-Mar-26 15:20N 29°57' W 090°03'1 1.6
2015-Mar-26 14:26N 29°55' W 090°04'2 2.1
2015-Mar-26 13:33N 29°57' W 090°04'0 0.0
2015-Mar-26 12:32N 29°57' W 090°04'2 1.8
2015-Mar-26 11:31N 29°55' W 090°04'0 0.0
2015-Mar-26 10:33N 29°55' W 090°04'0 0.0
2015-Mar-26 09:33N 29°55' W 090°04'0 0.0
2015-Mar-26 08:33N 29°55' W 090°04'0 0.0
2015-Mar-26 07:33N 29°55' W 090°04'0 0.2
2015-Mar-26 06:33N 29°55' W 090°04'0 0.0
2015-Mar-26 05:32N 29°55' W 090°04'0 0.0
2015-Mar-26 04:33N 29°55' W 090°04'1 1.4
2015-Mar-26 03:33N 29°57' W 090°03'3 1.5
2015-Mar-26 01:33N 29°56' W 089°60'  
2015-Mar-23 13:24N 29°57' W 090°02'0 0.0
2015-Mar-23 12:18N 29°57' W 090°02'0 0.0
2015-Mar-23 11:18N 29°57' W 090°02'2 2.1
2015-Mar-23 10:27N 29°57' W 090°04'1 1.2
2015-Mar-23 09:16N 29°55' W 090°04'0 0.0
2015-Mar-23 08:30N 29°55' W 090°04'0 0.0
2015-Mar-23 07:25N 29°55' W 090°04'0 0.1
2015-Mar-23 06:21N 29°56' W 090°04'2 2.6
2015-Mar-23 05:33N 29°57' W 090°02'3 3.2
2015-Mar-23 04:33N 29°56' W 089°59'0 0.1
2015-Mar-22 22:12N 29°56' W 089°59'4 2.5
2015-Mar-22 20:27N 29°55' W 090°04'0 0.0
2015-Mar-22 19:25N 29°55' W 090°04'0 0.2
2015-Mar-22 18:29N 29°55' W 090°04'2 1.4
2015-Mar-22 17:24N 29°57' W 090°03'3 2.9
2015-Mar-22 16:27N 29°56' W 090°00'3 0.2
2015-Mar-22 00:33N 29°55' W 089°57'0 0.0
2015-Mar-21 23:33N 29°55' W 089°57'  
2015-Mar-18 16:28N 29°55' W 089°58'5 5.0
2015-Mar-18 15:25N 29°55' W 090°04'0 0.1
2015-Mar-18 14:19N 29°55' W 090°04'0 0.0
2015-Mar-18 13:33N 29°55' W 090°04'0 0.0
2015-Mar-18 12:29N 29°55' W 090°04'0 0.0
2015-Mar-18 11:31N 29°55' W 090°04'2 1.8
2015-Mar-18 10:33N 29°57' W 090°03'  

Dump ship's entire track history